Time;durP1;ratioP1;P1;durP2;ratioP2;P2;SDS_P1;SDS_P2;PMS_P1;PMS_P2;Temp;Humidity;BMP_temperature;BMP_pressure;BME280_temperature;BME280_humidity;BME280_pressure;Samples;Min_cycle;Max_cycle;Signal;HPM_P1;HPM_P2
2023/01/10 00:01:39;;;;;;;66.50;37.05;;;26.80;99.90;;;;;;5004865;28;20102;-64
2023/01/10 00:04:05;;;;;;;136.88;86.72;;;26.80;99.90;;;;;;5006304;28;20589;-64
2023/01/10 00:06:32;;;;;;;143.10;89.75;;;26.80;99.90;;;;;;5006795;28;20026;-64
2023/01/10 00:08:59;;;;;;;149.43;97.28;;;26.90;99.90;;;;;;5008717;28;20041;-64
2023/01/10 00:14:12;;;;;;;164.70;112.47;;;27.00;99.90;;;;;;5007504;28;20403;-65
2023/01/10 00:16:41;;;;;;;132.18;92.88;;;27.00;99.90;;;;;;5016660;28;20037;-64
2023/01/10 00:19:09;;;;;;;82.72;58.53;;;27.00;99.90;;;;;;5017090;28;20105;-65
2023/01/10 00:21:36;;;;;;;109.13;75.30;;;27.00;99.90;;;;;;5016726;28;20037;-65
2023/01/10 00:24:16;;;;;;;71.45;51.72;;;27.10;99.90;;;;;;5016806;28;20025;-64
2023/01/10 00:26:45;;;;;;;57.85;41.33;;;27.10;99.90;;;;;;5016527;28;20109;-65
2023/01/10 00:29:11;;;;;;;56.35;40.03;;;27.10;99.90;;;;;;5016634;28;20112;-64
2023/01/10 00:31:38;;;;;;;81.75;55.35;;;27.10;99.90;;;;;;5016570;28;20034;-72
2023/01/10 00:34:06;;;;;;;70.57;53.25;;;27.10;99.90;;;;;;5012218;28;20029;-73
2023/01/10 00:36:33;;;;;;;76.63;50.22;;;27.00;99.90;;;;;;5007301;28;20025;-73
2023/01/10 00:38:59;;;;;;;79.45;55.92;;;27.20;99.90;;;;;;5006669;28;20033;-65
2023/01/10 00:44:02;;;;;;;70.50;53.35;;;27.20;99.90;;;;;;5005787;28;20019;-64
2023/01/10 00:46:29;;;;;;;65.53;47.67;;;27.20;99.90;;;;;;5004220;28;20451;-64
2023/01/10 00:48:56;;;;;;;66.97;44.83;;;27.20;99.90;;;;;;5005570;28;20022;-65
2023/01/10 00:51:22;;;;;;;70.32;48.08;;;27.20;99.90;;;;;;5005614;28;20077;-64
2023/01/10 00:53:49;;;;;;;69.05;45.17;;;27.30;99.90;;;;;;5003971;28;20069;-64
2023/01/10 00:56:15;;;;;;;56.80;42.42;;;27.30;99.90;;;;;;5005572;28;20386;-64
2023/01/10 00:58:43;;;;;;;61.05;39.42;;;27.30;99.90;;;;;;5005278;28;20014;-66
2023/01/10 01:01:10;;;;;;;48.30;36.65;;;27.30;99.90;;;;;;5003298;28;20022;-65
2023/01/10 01:03:36;;;;;;;50.63;38.78;;;27.40;99.90;;;;;;5005469;28;20057;-64
2023/01/10 01:06:05;;;;;;;52.47;35.58;;;27.40;99.90;;;;;;5005028;28;20360;-65
2023/01/10 01:08:32;;;;;;;51.42;36.63;;;27.40;99.90;;;;;;5006722;28;20242;-64
2023/01/10 01:10:58;;;;;;;46.83;36.10;;;27.40;99.90;;;;;;5005731;28;20431;-65
2023/01/10 01:13:25;;;;;;;47.13;36.38;;;27.40;99.90;;;;;;5004460;28;20053;-65
2023/01/10 01:15:51;;;;;;;48.45;34.28;;;27.40;99.90;;;;;;5004349;28;20022;-64
2023/01/10 01:18:20;;;;;;;45.72;34.67;;;27.50;99.90;;;;;;5005723;28;20108;-65
2023/01/10 01:20:51;;;;;;;55.78;39.85;;;27.50;99.90;;;;;;5007015;28;20029;-65
2023/01/10 01:23:18;;;;;;;58.47;39.67;;;27.50;99.90;;;;;;5010129;28;20037;-66
2023/01/10 01:25:45;;;;;;;73.45;52.70;;;27.50;99.90;;;;;;5005553;28;20442;-65
2023/01/10 01:28:12;;;;;;;103.85;75.13;;;27.60;99.90;;;;;;5005603;28;20037;-65
2023/01/10 01:30:39;;;;;;;70.80;52.80;;;27.70;99.90;;;;;;5003841;28;20085;-64
2023/01/10 01:33:05;;;;;;;54.38;40.28;;;27.70;99.90;;;;;;5004105;28;20029;-64
2023/01/10 01:35:32;;;;;;;48.88;36.03;;;27.70;99.90;;;;;;5005466;28;20515;-64
2023/01/10 01:37:59;;;;;;;39.63;33.83;;;27.80;99.90;;;;;;5002724;28;20672;-65
2023/01/10 01:40:25;;;;;;;40.03;32.47;;;27.90;99.90;;;;;;4995969;28;20105;-66
2023/01/10 01:42:54;;;;;;;40.20;35.00;;;27.80;99.90;;;;;;4995653;28;20427;-66
2023/01/10 01:45:23;;;;;;;53.03;39.75;;;27.90;99.90;;;;;;4995649;28;20084;-65
2023/01/10 01:47:52;;;;;;;62.53;44.47;;;27.90;99.90;;;;;;4995333;28;20508;-65
2023/01/10 01:50:25;;;;;;;80.15;59.17;;;27.90;99.90;;;;;;4997453;28;20038;-65
2023/01/10 01:52:55;;;;;;;255.38;169.68;;;27.90;99.90;;;;;;5014811;28;20535;-64
2023/01/10 01:55:25;;;;;;;95.45;68.65;;;27.90;99.90;;;;;;5015258;28;20041;-65
2023/01/10 01:57:55;;;;;;;54.40;38.78;;;28.00;99.90;;;;;;5015262;28;20104;-65
2023/01/10 02:00:22;;;;;;;48.95;42.20;;;28.00;99.90;;;;;;5015064;28;20018;-64
2023/01/10 02:02:55;;;;;;;55.13;48.70;;;28.00;99.90;;;;;;5014672;28;20025;-65
2023/01/10 02:05:23;;;;;;;84.75;66.57;;;28.00;99.90;;;;;;5003831;28;20105;-65
2023/01/10 02:07:55;;;;;;;54.30;41.38;;;28.00;99.90;;;;;;5008099;28;20081;-64
2023/01/10 02:10:29;;;;;;;50.30;41.92;;;28.00;99.90;;;;;;5009440;28;20026;-64
2023/01/10 02:13:00;;;;;;;57.95;42.75;;;28.10;99.90;;;;;;5003246;28;20438;-65
2023/01/10 02:15:26;;;;;;;59.40;42.08;;;28.10;99.90;;;;;;5004482;28;20623;-64
2023/01/10 02:17:53;;;;;;;49.00;41.30;;;28.20;99.90;;;;;;5002805;28;20104;-64
2023/01/10 02:20:22;;;;;;;59.03;46.50;;;28.20;99.90;;;;;;5011463;28;20026;-65
2023/01/10 02:23:08;;;;;;;63.97;49.28;;;28.20;99.90;;;;;;5011276;28;20536;-64
2023/01/10 02:25:36;;;;;;;213.85;163.70;;;28.30;99.90;;;;;;5004534;28;20033;-65
2023/01/10 02:28:28;;;;;;;104.95;82.35;;;28.30;99.90;;;;;;5004376;28;20018;-65
2023/01/10 02:31:13;;;;;;;67.47;50.40;;;28.40;99.90;;;;;;5002725;28;20026;-64
2023/01/10 02:34:09;;;;;;;72.47;57.72;;;28.50;99.90;;;;;;5004438;28;20018;-64
2023/01/10 02:36:51;;;;;;;81.07;60.55;;;28.50;99.90;;;;;;5002873;28;20054;-65
2023/01/10 02:39:37;;;;;;;62.13;46.33;;;28.50;99.90;;;;;;5002542;28;20098;-65
2023/01/10 02:42:08;;;;;;;53.67;44.38;;;28.60;99.90;;;;;;5006040;28;20010;-65
2023/01/10 02:44:41;;;;;;;48.15;38.65;;;28.60;99.90;;;;;;5005314;28;20417;-65
2023/01/10 02:47:09;;;;;;;46.10;37.22;;;28.60;99.90;;;;;;5007400;28;20029;-64
2023/01/10 02:49:47;;;;;;;49.47;35.45;;;28.70;99.90;;;;;;5005332;28;20022;-63
2023/01/10 02:52:20;;;;;;;54.67;40.67;;;28.80;99.90;;;;;;5005439;28;20267;-64
2023/01/10 02:54:48;;;;;;;49.90;37.42;;;28.80;99.90;;;;;;5007676;28;20094;-65
2023/01/10 02:57:36;;;;;;;44.85;34.05;;;28.90;99.90;;;;;;5016643;28;20471;-65
2023/01/10 03:00:23;;;;;;;51.72;35.85;;;28.80;99.90;;;;;;5016636;28;20030;-65
2023/01/10 03:03:07;;;;;;;45.35;39.08;;;28.80;99.90;;;;;;4975280;28;20492;-65
2023/01/10 03:05:55;;;;;;;48.97;38.95;;;28.80;99.90;;;;;;4975460;28;20122;-64
2023/01/10 03:08:27;;;;;;;50.10;37.30;;;28.80;99.90;;;;;;4975673;28;20034;-65
2023/01/10 03:10:58;;;;;;;;;;;28.80;99.90;;;;;;4975583;28;20117;-64
2023/01/10 03:13:29;;;;;;;36.55;27.88;;;28.90;99.90;;;;;;4975339;28;20011;-64
2023/01/10 03:15:57;;;;;;;31.20;26.13;;;29.00;99.90;;;;;;4975422;28;20035;-64
2023/01/10 03:18:31;;;;;;;27.77;23.35;;;29.00;99.90;;;;;;4975174;28;20038;-65
2023/01/10 03:21:01;;;;;;;32.30;24.70;;;29.10;99.90;;;;;;4973822;28;20053;-64
2023/01/10 03:23:28;;;;;;;40.38;33.60;;;29.20;99.90;;;;;;4962106;28;20120;-64
2023/01/10 03:25:56;;;;;;;33.33;24.80;;;29.30;99.90;;;;;;4965411;28;20488;-64
2023/01/10 03:28:41;;;;;;;41.15;27.17;;;29.40;99.90;;;;;;4963152;28;20033;-62
2023/01/10 03:31:15;;;;;;;41.08;28.35;;;29.50;99.90;;;;;;4966295;28;20051;-65
2023/01/10 03:33:42;;;;;;;34.13;26.95;;;29.50;99.90;;;;;;4982882;28;20038;-65
2023/01/10 03:36:26;;;;;;;36.55;26.08;;;29.60;99.90;;;;;;5000830;28;20531;-64
2023/01/10 03:39:22;;;;;;;36.15;25.95;;;29.50;99.90;;;;;;5008217;28;20100;-64
2023/01/10 03:42:00;;;;;;;22.40;19.05;;;29.50;99.90;;;;;;5007142;28;20037;-64
2023/01/10 03:44:43;;;;;;;25.30;19.70;;;29.60;99.90;;;;;;5004968;28;20027;-65
2023/01/10 03:47:18;;;;;;;23.77;19.27;;;29.60;99.90;;;;;;5004921;28;20101;-64
2023/01/10 03:49:49;;;;;;;32.15;21.10;;;29.70;99.90;;;;;;5004986;28;20030;-65
2023/01/10 03:52:17;;;;;;;36.00;24.65;;;29.70;99.90;;;;;;5006373;28;20033;-64
2023/01/10 03:54:46;;;;;;;37.67;26.35;;;29.80;99.90;;;;;;5007531;28;20025;-65
2023/01/10 03:57:18;;;;;;;39.13;29.60;;;30.00;99.90;;;;;;5007053;28;20105;-64
2023/01/10 03:59:45;;;;;;;41.38;29.48;;;30.00;99.90;;;;;;5006874;28;20026;-64
2023/01/10 04:02:12;;;;;;;38.65;28.48;;;29.90;99.90;;;;;;5007795;28;20028;-65
2023/01/10 04:04:38;;;;;;;32.10;23.20;;;29.90;99.90;;;;;;5005760;28;20096;-65
2023/01/10 04:07:05;;;;;;;21.65;16.60;;;29.90;99.90;;;;;;5004648;28;20019;-64
2023/01/10 04:09:32;;;;;;;23.95;14.27;;;30.10;99.90;;;;;;5006072;28;20039;-64
2023/01/10 04:11:58;;;;;;;16.20;11.60;;;30.20;99.90;;;;;;5005942;28;20030;-65
2023/01/10 04:14:26;;;;;;;19.30;14.82;;;30.30;99.90;;;;;;5006434;28;20400;-64
2023/01/10 04:16:53;;;;;;;23.38;16.42;;;30.30;99.90;;;;;;5005808;28;20030;-65
2023/01/10 04:19:19;;;;;;;31.80;22.58;;;30.30;99.90;;;;;;5005770;28;20481;-64
2023/01/10 04:21:46;;;;;;;29.23;21.17;;;30.30;99.90;;;;;;4996377;28;20025;-64
2023/01/10 04:24:12;;;;;;;29.52;22.75;;;30.30;99.90;;;;;;4996432;28;20019;-64
2023/01/10 04:26:39;;;;;;;35.90;23.52;;;30.30;99.90;;;;;;4996447;28;20069;-64
2023/01/10 04:29:05;;;;;;;33.40;16.63;;;30.30;99.90;;;;;;5001093;28;20100;-64
2023/01/10 04:31:32;;;;;;;20.60;13.98;;;30.30;99.90;;;;;;4996633;28;20199;-64
2023/01/10 04:33:59;;;;;;;29.38;20.85;;;30.50;99.90;;;;;;4996224;28;20524;-64
2023/01/10 04:36:26;;;;;;;17.33;13.60;;;30.50;99.90;;;;;;4995932;28;20045;-66
2023/01/10 04:38:52;;;;;;;21.48;15.15;;;30.70;99.90;;;;;;4999140;28;20030;-63
2023/01/10 04:41:19;;;;;;;27.83;18.63;;;30.80;99.90;;;;;;4996072;28;20088;-65
2023/01/10 04:43:45;;;;;;;24.48;16.08;;;30.70;99.90;;;;;;4996429;28;20018;-64
2023/01/10 04:46:12;;;;;;;17.25;12.85;;;30.90;99.90;;;;;;4999876;28;20023;-65
2023/01/10 04:48:38;;;;;;;21.13;12.75;;;31.10;99.90;;;;;;5004275;28;20394;-64
2023/01/10 04:51:05;;;;;;;19.45;13.07;;;31.30;99.90;;;;;;5005963;28;20018;-66
2023/01/10 04:53:32;;;;;;;13.32;11.63;;;31.50;99.90;;;;;;5004863;28;20029;-63
2023/01/10 04:56:09;;;;;;;25.50;14.05;;;31.60;99.90;;;;;;5004588;28;20034;-63
2023/01/10 04:58:37;;;;;;;17.23;11.90;;;31.60;99.90;;;;;;5011664;28;20542;-70
2023/01/10 05:01:16;;;;;;;20.75;12.75;;;31.60;99.90;;;;;;5003458;28;20045;-65
2023/01/10 05:03:43;;;;;;;16.42;11.27;;;31.60;99.90;;;;;;5003346;28;20029;-64
2023/01/10 05:06:09;;;;;;;22.92;11.57;;;31.60;99.90;;;;;;5004093;28;20088;-65
2023/01/10 05:08:36;;;;;;;12.98;9.73;;;31.70;99.90;;;;;;5004445;28;20027;-62
2023/01/10 05:11:02;;;;;;;28.50;11.18;;;31.90;99.90;;;;;;5003146;28;20026;-65
2023/01/10 05:13:29;;;;;;;14.20;10.75;;;31.90;99.90;;;;;;5004669;28;20095;-64
2023/01/10 05:15:57;;;;;;;21.60;12.10;;;32.00;99.90;;;;;;5004622;28;20019;-65
2023/01/10 05:18:25;;;;;;;17.35;11.52;;;32.10;99.90;;;;;;5003341;28;20136;-64
2023/01/10 05:20:52;;;;;;;13.73;10.93;;;32.10;99.90;;;;;;5004647;28;20092;-64
2023/01/10 05:23:19;;;;;;;21.65;12.43;;;32.10;99.90;;;;;;5004992;28;20022;-64
2023/01/10 05:25:45;;;;;;;17.65;11.45;;;32.10;99.90;;;;;;5003217;28;20022;-64
2023/01/10 05:28:12;;;;;;;14.45;10.18;;;32.20;99.90;;;;;;5004368;28;20105;-65
2023/01/10 05:30:38;;;;;;;14.43;10.75;;;32.30;99.90;;;;;;5004616;28;20025;-65
2023/01/10 05:33:05;;;;;;;14.75;9.90;;;32.20;99.90;;;;;;5002824;28;20158;-65
2023/01/10 05:35:31;;;;;;;16.55;11.82;;;32.10;99.90;;;;;;5004141;28;20109;-65
2023/01/10 05:37:58;;;;;;;15.13;10.80;;;32.10;99.90;;;;;;5004241;28;20033;-65
2023/01/10 05:40:24;;;;;;;18.85;11.23;;;32.20;99.90;;;;;;5002533;28;20014;-65
2023/01/10 05:42:51;;;;;;;14.60;11.63;;;32.30;99.90;;;;;;5004170;28;20053;-64
2023/01/10 05:45:18;;;;;;;14.57;11.65;;;32.30;99.90;;;;;;5004297;28;20042;-65
2023/01/10 05:47:44;;;;;;;15.68;11.40;;;32.20;99.90;;;;;;5002170;28;20077;-65
2023/01/10 05:50:11;;;;;;;16.42;10.52;;;32.20;99.90;;;;;;5004037;28;20026;-64
2023/01/10 05:52:37;;;;;;;13.35;10.15;;;32.40;99.90;;;;;;5004062;28;20558;-65
2023/01/10 05:55:05;;;;;;;13.75;10.20;;;32.50;99.90;;;;;;5002352;28;20018;-64
2023/01/10 05:57:31;;;;;;;17.95;11.02;;;32.50;99.90;;;;;;5003700;28;20050;-64
2023/01/10 05:59:58;;;;;;;13.10;9.88;;;32.70;99.90;;;;;;5004008;28;20077;-64
2023/01/10 06:02:25;;;;;;;13.40;9.65;;;32.80;99.90;;;;;;5002125;28;20057;-64
2023/01/10 06:04:54;;;;;;;11.43;9.52;;;32.90;99.90;;;;;;5003579;28;20030;-64
2023/01/10 06:07:21;;;;;;;15.10;10.00;;;32.90;99.90;;;;;;5004113;28;20029;-64
2023/01/10 06:09:50;;;;;;;15.02;11.80;;;33.00;99.90;;;;;;5002420;28;20030;-65
2023/01/10 06:12:19;;;;;;;13.65;10.32;;;33.00;99.90;;;;;;5009811;28;20037;-65
2023/01/10 06:14:45;;;;;;;15.18;10.38;;;32.90;99.90;;;;;;5006746;28;20483;-64
2023/01/10 06:17:12;;;;;;;12.85;9.65;;;32.90;99.90;;;;;;5002401;28;20528;-63
2023/01/10 06:19:38;;;;;;;11.20;9.15;;;32.80;99.90;;;;;;5001496;28;20165;-65
2023/01/10 06:22:08;;;;;;;13.35;9.73;;;32.70;99.90;;;;;;5003700;28;20022;-65
2023/01/10 06:24:34;;;;;;;11.90;10.10;;;32.80;99.90;;;;;;5002075;28;20042;-65
2023/01/10 06:27:01;;;;;;;13.60;9.50;;;32.70;99.90;;;;;;5001382;28;20541;-61
2023/01/10 06:29:27;;;;;;;12.80;9.18;;;32.70;99.90;;;;;;5003742;28;20152;-64
2023/01/10 06:31:54;;;;;;;13.00;9.43;;;32.80;99.90;;;;;;5002514;28;20026;-62
2023/01/10 06:34:20;;;;;;;9.77;8.35;;;32.90;99.90;;;;;;5001727;28;20026;-64
2023/01/10 06:36:47;;;;;;;18.77;12.70;;;32.90;99.90;;;;;;5003606;28;20018;-62
2023/01/10 06:39:13;;;;;;;18.65;11.38;;;32.80;99.90;;;;;;5002392;28;20018;-64
2023/01/10 06:41:40;;;;;;;15.93;10.60;;;32.80;99.90;;;;;;5001904;28;20391;-64
2023/01/10 06:44:06;;;;;;;14.43;9.93;;;32.90;99.90;;;;;;5003421;28;20021;-63
2023/01/10 06:46:33;;;;;;;12.48;9.20;;;32.90;99.90;;;;;;5002299;28;20014;-64
2023/01/10 06:49:00;;;;;;;18.85;10.82;;;32.90;99.90;;;;;;4997168;28;20026;-65
2023/01/10 06:51:26;;;;;;;15.48;11.05;;;32.90;99.90;;;;;;5010796;28;20449;-65
2023/01/10 06:53:53;;;;;;;15.40;9.95;;;32.90;99.90;;;;;;5013514;28;20104;-65
2023/01/10 06:56:19;;;;;;;14.43;10.43;;;33.00;99.90;;;;;;5013278;28;20449;-64
2023/01/10 06:58:48;;;;;;;12.38;9.05;;;33.00;99.90;;;;;;5012997;28;20028;-64
2023/01/10 07:01:18;;;;;;;10.38;8.35;;;33.10;99.90;;;;;;5013282;28;20034;-63
2023/01/10 07:03:44;;;;;;;14.50;9.80;;;33.20;99.90;;;;;;5013536;28;20097;-65
2023/01/10 07:06:11;;;;;;;10.70;8.90;;;33.30;99.90;;;;;;5013380;28;20026;-65
2023/01/10 07:08:42;;;;;;;10.98;8.25;;;33.20;99.90;;;;;;5013208;28;20044;-64
2023/01/10 07:11:09;;;;;;;12.13;9.18;;;33.10;99.90;;;;;;5013510;28;20028;-65
2023/01/10 07:13:36;;;;;;;11.25;9.10;;;33.20;99.90;;;;;;5013225;28;20053;-65
2023/01/10 07:16:06;;;;;;;14.60;8.23;;;33.30;99.90;;;;;;5013074;28;20029;-65
2023/01/10 07:18:36;;;;;;;12.30;8.05;;;33.30;99.90;;;;;;5013489;28;20105;-65
2023/01/10 07:21:03;;;;;;;12.15;8.25;;;33.30;99.90;;;;;;5013287;28;20033;-65
2023/01/10 07:23:30;;;;;;;10.20;8.63;;;33.40;99.90;;;;;;5013125;28;20069;-65
2023/01/10 07:25:58;;;;;;;12.18;9.40;;;33.30;99.90;;;;;;5013329;28;20101;-65
2023/01/10 07:28:24;;;;;;;20.67;14.02;;;33.30;99.90;;;;;;5013202;28;20026;-65
2023/01/10 07:30:51;;;;;;;23.17;10.82;;;33.30;99.90;;;;;;5013044;28;20053;-64
2023/01/10 07:33:17;;;;;;;10.32;8.27;;;33.40;99.90;;;;;;5013337;28;20479;-65
2023/01/10 07:35:44;;;;;;;14.20;8.90;;;33.40;99.90;;;;;;5013120;28;20097;-65
2023/01/10 07:38:10;;;;;;;13.73;9.57;;;33.40;99.90;;;;;;5012660;28;20030;-64
2023/01/10 07:40:37;;;;;;;14.43;9.55;;;33.40;99.90;;;;;;5012859;28;20387;-65
2023/01/10 07:43:04;;;;;;;16.73;9.38;;;33.40;99.90;;;;;;5012871;28;20483;-64
2023/01/10 07:45:30;;;;;;;11.35;8.25;;;33.40;99.90;;;;;;5012617;28;20026;-64
2023/01/10 07:47:58;;;;;;;12.07;8.80;;;33.40;99.90;;;;;;5012746;28;20434;-65
2023/01/10 07:50:26;;;;;;;8.70;7.80;;;33.40;99.90;;;;;;5012799;28;20109;-65
2023/01/10 07:52:55;;;;;;;12.43;9.45;;;33.30;99.90;;;;;;5012712;28;20025;-64
2023/01/10 07:55:22;;;;;;;16.00;10.02;;;33.40;99.90;;;;;;5012749;28;20053;-65
2023/01/10 07:57:50;;;;;;;15.50;11.38;;;33.30;99.90;;;;;;5012890;28;20079;-64
2023/01/10 08:00:18;;;;;;;19.05;12.20;;;33.30;99.90;;;;;;5012876;28;20365;-64
2023/01/10 08:02:45;;;;;;;11.75;9.93;;;33.40;99.90;;;;;;5012693;28;20545;-64
2023/01/10 08:05:12;;;;;;;11.65;8.88;;;33.40;99.90;;;;;;5012593;28;20053;-64
2023/01/10 08:07:38;;;;;;;10.32;8.68;;;33.40;99.90;;;;;;5005661;28;20038;-65
2023/01/10 08:10:06;;;;;;;17.35;11.90;;;33.40;99.90;;;;;;5000306;28;20034;-63
2023/01/10 08:12:33;;;;;;;12.80;9.90;;;33.50;99.90;;;;;;4996624;28;20031;-64
2023/01/10 08:14:59;;;;;;;12.75;8.85;;;33.60;99.90;;;;;;4996481;28;20403;-63
2023/01/10 08:17:26;;;;;;;16.80;11.02;;;33.70;99.90;;;;;;4996624;28;20037;-63
2023/01/10 08:19:52;;;;;;;15.65;10.90;;;33.70;99.90;;;;;;4996673;28;20101;-63
2023/01/10 08:22:19;;;;;;;11.20;8.57;;;33.90;99.90;;;;;;4996551;28;20498;-63
2023/01/10 08:24:45;;;;;;;12.68;9.32;;;34.00;99.90;;;;;;4996867;28;20494;-64
2023/01/10 08:27:12;;;;;;;13.15;10.90;;;34.00;99.90;;;;;;4996698;28;20031;-63
2023/01/10 08:29:38;;;;;;;14.20;9.88;;;34.20;99.80;;;;;;4996699;28;20030;-64
2023/01/10 08:32:05;;;;;;;13.85;10.85;;;34.20;99.90;;;;;;5006303;28;20025;-63
2023/01/10 08:34:31;;;;;;;17.30;13.00;;;34.20;99.90;;;;;;4998287;28;20026;-63
2023/01/10 08:36:58;;;;;;;18.85;11.95;;;34.10;99.90;;;;;;4996560;28;20030;-61
2023/01/10 08:39:25;;;;;;;12.88;9.23;;;34.00;99.90;;;;;;5007858;28;20041;-63
2023/01/10 08:41:53;;;;;;;12.07;9.82;;;34.10;99.00;;;;;;4996576;28;20061;-63
2023/01/10 08:44:19;;;;;;;15.27;11.20;;;34.10;99.80;;;;;;4996377;28;20023;-63
2023/01/10 08:46:46;;;;;;;16.23;11.85;;;34.10;99.90;;;;;;4996308;28;20065;-65
2023/01/10 08:49:13;;;;;;;14.48;11.45;;;34.00;99.90;;;;;;4996583;28;20030;-64
2023/01/10 08:51:40;;;;;;;19.25;12.25;;;34.00;99.90;;;;;;4996401;28;20491;-64
2023/01/10 08:54:06;;;;;;;20.33;12.10;;;34.00;99.90;;;;;;4999575;28;20042;-64
2023/01/10 08:56:35;;;;;;;16.08;12.90;;;34.00;99.90;;;;;;5012495;28;20026;-65
2023/01/10 08:59:01;;;;;;;16.83;11.70;;;34.00;99.90;;;;;;5006290;28;20533;-65
2023/01/10 09:01:28;;;;;;;16.48;12.65;;;33.90;99.90;;;;;;5007570;28;20021;-64
2023/01/10 09:03:54;;;;;;;16.38;12.07;;;33.90;99.80;;;;;;5010145;28;20484;-64
2023/01/10 09:06:21;;;;;;;17.95;12.38;;;34.00;99.20;;;;;;5000243;28;20471;-65
2023/01/10 09:08:47;;;;;;;18.27;12.57;;;33.90;99.40;;;;;;5010256;28;20463;-64
2023/01/10 09:11:14;;;;;;;23.13;14.07;;;33.90;99.90;;;;;;5004997;28;20035;-63
2023/01/10 09:13:41;;;;;;;23.83;12.60;;;34.00;99.60;;;;;;4996168;28;20074;-63
2023/01/10 09:16:08;;;;;;;17.20;12.82;;;34.10;99.60;;;;;;5007393;28;20034;-64
2023/01/10 09:18:35;;;;;;;28.65;21.90;;;34.20;98.80;;;;;;5006899;28;20026;-64
2023/01/10 09:21:02;;;;;;;30.23;23.83;;;34.20;99.90;;;;;;5005159;28;20029;-64
2023/01/10 09:23:28;;;;;;;20.05;13.93;;;34.10;99.90;;;;;;5005266;28;20040;-64
2023/01/10 09:25:56;;;;;;;22.65;16.05;;;34.00;99.90;;;;;;5005412;28;20018;-64
2023/01/10 09:28:24;;;;;;;21.88;18.38;;;34.00;99.90;;;;;;5007259;28;20022;-63
2023/01/10 09:30:50;;;;;;;40.92;27.42;;;34.00;99.80;;;;;;5002873;28;20029;-64
2023/01/10 09:33:18;;;;;;;39.63;26.33;;;34.00;99.80;;;;;;5003831;28;20467;-63
2023/01/10 09:35:45;;;;;;;56.05;36.92;;;34.00;99.30;;;;;;5004218;28;20073;-63
2023/01/10 09:38:15;;;;;;;30.08;21.65;;;34.10;99.40;;;;;;5004187;28;20054;-63
2023/01/10 09:41:13;;;;;;;22.45;16.77;;;34.10;99.10;;;;;;5004715;28;20101;-67
2023/01/10 09:44:06;;;;;;;56.63;43.42;;;34.10;98.80;;;;;;5002886;28;20114;-65
2023/01/10 09:46:38;;;;;;;33.55;21.50;;;34.00;99.70;;;;;;5000109;28;20030;-64
2023/01/10 09:49:14;;;;;;;;;;;34.00;99.00;;;;;;5005891;28;20050;-63
2023/01/10 09:51:47;;;;;;;17.85;14.35;;;34.10;98.60;;;;;;5004911;28;20381;-65
2023/01/10 09:54:18;;;;;;;353.58;278.48;;;34.10;98.70;;;;;;5005974;28;20041;-63
2023/01/10 09:56:46;;;;;;;519.55;370.13;;;34.10;99.40;;;;;;5008528;28;20018;-64
2023/01/10 09:59:25;;;;;;;266.23;171.73;;;34.00;99.90;;;;;;5012092;28;20421;-64
2023/01/10 10:02:01;;;;;;;45.45;31.17;;;33.90;99.90;;;;;;5013727;28;20113;-64
2023/01/10 10:04:35;;;;;;;38.88;20.50;;;33.70;99.90;;;;;;5005960;28;20030;-64
2023/01/10 10:07:04;;;;;;;128.57;68.10;;;33.60;99.90;;;;;;5007854;28;20034;-64
2023/01/10 10:09:34;;;;;;;97.10;48.30;;;33.60;99.90;;;;;;5005342;28;20023;-65
2023/01/10 10:12:22;;;;;;;26.88;16.95;;;33.50;99.90;;;;;;5008618;28;20061;-63
2023/01/10 10:15:22;;;;;;;25.10;17.55;;;33.50;99.90;;;;;;5004204;28;20072;-62
2023/01/10 10:18:15;;;;;;;65.18;34.40;;;33.60;99.90;;;;;;4957470;28;20065;-65
2023/01/10 10:20:51;;;;;;;31.13;19.88;;;33.60;99.90;;;;;;4960235;28;20027;-63
2023/01/10 10:23:26;;;;;;;58.15;36.88;;;33.60;99.90;;;;;;4963445;28;20026;-63
2023/01/10 10:25:56;;;;;;;76.13;52.20;;;33.60;99.90;;;;;;4959007;28;20067;-64
2023/01/10 10:28:41;;;;;;;36.10;21.67;;;33.70;99.90;;;;;;4959548;28;20019;-65
2023/01/10 10:31:08;;;;;;;34.42;21.55;;;33.70;99.90;;;;;;4964821;28;20031;-63
2023/01/10 10:33:52;;;;;;;67.10;48.38;;;33.70;99.90;;;;;;4962871;28;20022;-64
2023/01/10 10:36:25;;;;;;;105.30;57.15;;;33.60;99.90;;;;;;4958381;28;20505;-64
2023/01/10 10:38:57;;;;;;;54.67;33.70;;;33.60;99.90;;;;;;4961490;28;20436;-64
2023/01/10 10:41:31;;;;;;;31.58;19.15;;;33.60;99.90;;;;;;4959166;28;20097;-65
2023/01/10 10:44:03;;;;;;;39.55;20.35;;;33.40;99.90;;;;;;4962444;28;20098;-64
2023/01/10 10:46:31;;;;;;;27.00;18.85;;;33.40;99.90;;;;;;4956673;28;20062;-65
2023/01/10 10:49:13;;;;;;;33.28;21.48;;;33.30;99.90;;;;;;4992167;28;20042;-64
2023/01/10 10:51:50;;;;;;;61.05;38.90;;;33.30;99.90;;;;;;5007806;28;20407;-65
2023/01/10 10:54:16;;;;;;;50.35;32.88;;;33.30;99.90;;;;;;5005128;28;20451;-64
2023/01/10 10:56:44;;;;;;;53.28;35.33;;;33.30;99.90;;;;;;5006237;28;20311;-65
2023/01/10 10:59:17;;;;;;;35.83;24.73;;;33.30;99.90;;;;;;5006955;28;20017;-64
2023/01/10 11:01:48;;;;;;;45.92;29.48;;;33.30;99.90;;;;;;5006294;28;20088;-66
2023/01/10 11:04:19;;;;;;;58.90;34.17;;;33.30;99.90;;;;;;5005507;28;20113;-65
2023/01/10 11:06:48;;;;;;;54.47;35.85;;;33.30;99.90;;;;;;5009237;28;20087;-63
2023/01/10 11:12:12;;;;;;;289.17;219.15;;;33.20;99.90;;;;;;5004082;28;20029;-64
2023/01/10 11:14:50;;;;;;;210.68;147.95;;;33.20;99.90;;;;;;5002259;28;20095;-66
2023/01/10 11:17:20;;;;;;;135.48;97.25;;;33.20;99.90;;;;;;5002653;28;20030;-69
2023/01/10 11:19:58;;;;;;;52.88;33.53;;;33.10;99.90;;;;;;5003651;28;20021;-65
2023/01/10 11:22:29;;;;;;;46.90;29.92;;;33.20;99.90;;;;;;5010965;28;20483;-64
2023/01/10 11:25:00;;;;;;;45.73;26.73;;;33.10;99.90;;;;;;5005484;28;20034;-65
2023/01/10 11:27:30;;;;;;;45.83;27.48;;;33.20;99.90;;;;;;5009411;28;20037;-67
2023/01/10 11:29:59;;;;;;;43.13;25.58;;;33.20;99.90;;;;;;5009387;28;20510;-66
2023/01/10 11:33:00;;;;;;;42.60;26.15;;;33.10;99.90;;;;;;5009075;28;20032;-65
2023/01/10 11:35:30;;;;;;;50.25;26.80;;;33.10;99.90;;;;;;4967408;28;20501;-67
2023/01/10 11:38:03;;;;;;;50.08;28.23;;;33.10;99.90;;;;;;4968032;28;20031;-67
2023/01/10 11:40:31;;;;;;;50.65;31.05;;;33.00;99.90;;;;;;4968180;28;20019;-67
2023/01/10 11:42:59;;;;;;;55.38;33.58;;;33.00;99.90;;;;;;4968058;28;20500;-66
2023/01/10 11:45:30;;;;;;;56.53;36.05;;;33.00;99.90;;;;;;4968862;28;20035;-67
2023/01/10 11:48:09;;;;;;;54.63;32.83;;;33.00;99.90;;;;;;4972110;28;20026;-67
2023/01/10 11:50:38;;;;;;;60.05;32.83;;;32.90;99.90;;;;;;4971938;28;20031;-67
2023/01/10 11:53:21;;;;;;;59.00;36.42;;;32.90;99.90;;;;;;4971484;28;20158;-65
2023/01/10 11:55:48;;;;;;;59.42;39.63;;;32.90;99.90;;;;;;4962760;28;20051;-65
2023/01/10 11:58:15;;;;;;;62.15;36.58;;;32.90;99.90;;;;;;4968282;28;20031;-65
2023/01/10 12:00:47;;;;;;;56.65;35.60;;;32.90;99.90;;;;;;4971805;28;20034;-65
2023/01/10 12:03:15;;;;;;;57.70;31.92;;;32.80;99.90;;;;;;4966524;28;20053;-65
2023/01/10 12:05:50;;;;;;;61.67;34.55;;;32.70;99.90;;;;;;4982562;28;20650;-64
2023/01/10 12:08:27;;;;;;;55.08;33.50;;;32.70;99.90;;;;;;5011064;28;20041;-65
2023/01/10 12:11:00;;;;;;;61.42;36.60;;;32.70;99.90;;;;;;4996764;28;20023;-65
2023/01/10 12:13:29;;;;;;;64.95;38.40;;;32.70;99.90;;;;;;4997112;28;20046;-65
2023/01/10 12:16:16;;;;;;;72.60;40.60;;;32.70;99.90;;;;;;5001616;28;20033;-69
2023/01/10 12:18:42;;;;;;;63.10;37.90;;;32.70;99.90;;;;;;5004532;28;20030;-65
2023/01/10 12:21:13;;;;;;;54.92;34.95;;;32.70;99.90;;;;;;5003668;28;20018;-67
2023/01/10 12:23:43;;;;;;;58.28;34.92;;;32.60;99.90;;;;;;5006831;28;20479;-67
2023/01/10 12:26:13;;;;;;;62.97;38.08;;;32.60;99.90;;;;;;5012148;28;20026;-67
2023/01/10 12:28:56;;;;;;;71.85;41.97;;;32.60;99.90;;;;;;5012430;28;20025;-68
2023/01/10 12:31:23;;;;;;;80.38;43.55;;;32.50;99.90;;;;;;5012679;28;20030;-67
2023/01/10 12:33:56;;;;;;;79.05;45.38;;;32.50;99.90;;;;;;5008831;28;20097;-68
2023/01/10 12:36:44;;;;;;;67.40;43.40;;;32.50;99.90;;;;;;5004730;28;20125;-68
2023/01/10 12:39:24;;;;;;;77.70;45.90;;;32.50;99.90;;;;;;5005562;28;20025;-67
2023/01/10 12:44:40;;;;;;;75.75;46.42;;;32.40;99.90;;;;;;5005069;28;20037;-68
2023/01/10 12:47:31;;;;;;;85.63;52.63;;;32.40;99.90;;;;;;5006750;28;20026;-66
2023/01/10 12:50:17;;;;;;;93.93;54.15;;;32.30;99.90;;;;;;4971364;28;20046;-67
2023/01/10 12:52:52;;;;;;;96.38;62.22;;;32.30;99.90;;;;;;4913359;29;20151;-65
2023/01/10 12:55:22;;;;;;;100.20;61.47;;;32.30;99.90;;;;;;4913756;29;20047;-66